NOZ391 ENSB-ENGM
Flight info
| Callsign | NOZ391 |
|---|---|
| Flight time | 2h 31m |
| Altitude | 35000 |
| Route | AMPIS DCT LIPSA DCT SOMUB DCT ABUNO DCT INREX |
| Aircraft | B738/M-SDGIJ1LRWY/SB1 |
Departure
| Time | 2026-05-07 11:12 |
|---|---|
| Airport | Svalbard Airport, Longyear (ENSB) |
Arrival
| Time | 2026-05-07 13:44 |
|---|---|
| Airport | Oslo-Gardermoen International Airport (ENGM) |
| Time | Latitude | Longitude | Altitude | Speed | Heading |
|---|---|---|---|---|---|
| 2026-05-07 11:06 | 78.24537 | 15.50302 | 86 ft | 0 kts | 283° |
| 2026-05-07 11:06 | 78.24536 | 15.50312 | 85 ft | 0 kts | 283° |
| 2026-05-07 11:07 | 78.24537 | 15.50292 | 86 ft | 2 kts | 283° |
| 2026-05-07 11:07 | 78.24545 | 15.50127 | 88 ft | 7 kts | 279° |
| 2026-05-07 11:07 | 78.24524 | 15.50014 | 88 ft | 2 kts | 220° |
| 2026-05-07 11:07 | 78.24501 | 15.49921 | 91 ft | 7 kts | 216° |
| 2026-05-07 11:08 | 78.24445 | 15.49685 | 97 ft | 13 kts | 257° |
| 2026-05-07 11:08 | 78.24469 | 15.49134 | 100 ft | 18 kts | 285° |
| 2026-05-07 11:08 | 78.24502 | 15.48547 | 103 ft | 17 kts | 285° |
| 2026-05-07 11:08 | 78.24538 | 15.47940 | 104 ft | 20 kts | 285° |
| 2026-05-07 11:09 | 78.24579 | 15.47181 | 100 ft | 25 kts | 284° |
| 2026-05-07 11:09 | 78.24631 | 15.46260 | 97 ft | 30 kts | 285° |
| 2026-05-07 11:09 | 78.24692 | 15.45194 | 97 ft | 33 kts | 284° |
| 2026-05-07 11:09 | 78.24751 | 15.44101 | 91 ft | 33 kts | 285° |
| 2026-05-07 11:10 | 78.24809 | 15.43058 | 85 ft | 29 kts | 284° |
| 2026-05-07 11:10 | 78.24855 | 15.42263 | 81 ft | 17 kts | 284° |
| 2026-05-07 11:10 | 78.24890 | 15.41873 | 78 ft | 11 kts | 299° |
| 2026-05-07 11:10 | 78.24889 | 15.41773 | 78 ft | 3 kts | 136° |
| 2026-05-07 11:11 | 78.24874 | 15.41900 | 79 ft | 4 kts | 109° |
| 2026-05-07 11:11 | 78.24871 | 15.41946 | 80 ft | 0 kts | 104° |
| 2026-05-07 11:11 | 78.24870 | 15.41964 | 80 ft | 5 kts | 103° |
| 2026-05-07 11:12 | 78.24811 | 15.43056 | 85 ft | 68 kts | 104° |
| 2026-05-07 11:12 | 78.24622 | 15.46412 | 98 ft | 134 kts | 104° |
| 2026-05-07 11:12 | 78.24327 | 15.51621 | 241 ft | 175 kts | 104° |
| 2026-05-07 11:12 | 78.23997 | 15.57281 | 1079 ft | 175 kts | 103° |
| 2026-05-07 11:13 | 78.23694 | 15.62955 | 1875 ft | 177 kts | 103° |
| 2026-05-07 11:13 | 78.23352 | 15.68943 | 2334 ft | 190 kts | 111° |
| 2026-05-07 11:13 | 78.22618 | 15.74685 | 2734 ft | 210 kts | 128° |
| 2026-05-07 11:13 | 78.21658 | 15.80289 | 3236 ft | 224 kts | 128° |
| 2026-05-07 11:14 | 78.20683 | 15.86463 | 3791 ft | 236 kts | 125° |
| 2026-05-07 11:14 | 78.19701 | 15.93069 | 4378 ft | 248 kts | 124° |
| 2026-05-07 11:14 | 78.18689 | 15.99952 | 5114 ft | 254 kts | 124° |
| 2026-05-07 11:14 | 78.17668 | 16.06974 | 5895 ft | 258 kts | 122° |
| 2026-05-07 11:15 | 78.16698 | 16.14268 | 6706 ft | 260 kts | 119° |
| 2026-05-07 11:15 | 78.15728 | 16.21648 | 7483 ft | 264 kts | 126° |
| 2026-05-07 11:15 | 78.14292 | 16.27202 | 8221 ft | 273 kts | 155° |
| 2026-05-07 11:15 | 78.12418 | 16.28616 | 8968 ft | 282 kts | 181° |
| 2026-05-07 11:16 | 78.10481 | 16.27340 | 9698 ft | 286 kts | 187° |
| 2026-05-07 11:16 | 78.08528 | 16.25839 | 10455 ft | 288 kts | 186° |
| 2026-05-07 11:16 | 78.06512 | 16.24506 | 10897 ft | 302 kts | 184° |
| 2026-05-07 11:16 | 78.04389 | 16.23269 | 11282 ft | 316 kts | 184° |
| 2026-05-07 11:17 | 78.02162 | 16.22049 | 11653 ft | 332 kts | 184° |
| 2026-05-07 11:17 | 77.99820 | 16.20793 | 12030 ft | 348 kts | 184° |
| 2026-05-07 11:17 | 77.97381 | 16.19487 | 12442 ft | 361 kts | 184° |
| 2026-05-07 11:17 | 77.94878 | 16.18141 | 13052 ft | 368 kts | 184° |
| 2026-05-07 11:18 | 77.92342 | 16.16772 | 13706 ft | 372 kts | 184° |
| 2026-05-07 11:18 | 77.89763 | 16.15381 | 14382 ft | 377 kts | 184° |
| 2026-05-07 11:18 | 77.87166 | 16.13984 | 15056 ft | 381 kts | 184° |
| 2026-05-07 11:18 | 77.84536 | 16.12578 | 15715 ft | 385 kts | 184° |
| 2026-05-07 11:19 | 77.81884 | 16.11166 | 16372 ft | 388 kts | 184° |
| 2026-05-07 11:19 | 77.79202 | 16.09746 | 17024 ft | 392 kts | 184° |
| 2026-05-07 11:19 | 77.76494 | 16.08318 | 17636 ft | 396 kts | 184° |
| 2026-05-07 11:19 | 77.73758 | 16.06881 | 18259 ft | 399 kts | 184° |
| 2026-05-07 11:20 | 77.71005 | 16.05441 | 18858 ft | 403 kts | 184° |
| 2026-05-07 11:20 | 77.68220 | 16.03991 | 19459 ft | 406 kts | 184° |
| 2026-05-07 11:20 | 77.65416 | 16.02538 | 20014 ft | 410 kts | 184° |
| 2026-05-07 11:20 | 77.62591 | 16.01082 | 20573 ft | 414 kts | 184° |
| 2026-05-07 11:21 | 77.59737 | 15.99618 | 21133 ft | 417 kts | 184° |
| 2026-05-07 11:21 | 77.56857 | 15.98146 | 21654 ft | 420 kts | 184° |
| 2026-05-07 11:21 | 77.53963 | 15.96674 | 22186 ft | 423 kts | 184° |
| 2026-05-07 11:21 | 77.51050 | 15.95198 | 22694 ft | 426 kts | 184° |
| 2026-05-07 11:22 | 77.48115 | 15.93718 | 23197 ft | 429 kts | 184° |
| 2026-05-07 11:22 | 77.45155 | 15.92231 | 23665 ft | 432 kts | 184° |
| 2026-05-07 11:22 | 77.42182 | 15.90745 | 24173 ft | 434 kts | 184° |
| 2026-05-07 11:22 | 77.39188 | 15.89255 | 24608 ft | 438 kts | 184° |
| 2026-05-07 11:23 | 77.36169 | 15.87760 | 25058 ft | 441 kts | 185° |
| 2026-05-07 11:23 | 77.33133 | 15.86264 | 25482 ft | 444 kts | 185° |
| 2026-05-07 11:23 | 77.30063 | 15.84758 | 25909 ft | 446 kts | 185° |
| 2026-05-07 11:23 | 77.26977 | 15.83251 | 26276 ft | 450 kts | 185° |
| 2026-05-07 11:24 | 77.23870 | 15.81741 | 26681 ft | 453 kts | 185° |
| 2026-05-07 11:24 | 77.20735 | 15.80224 | 27102 ft | 456 kts | 184° |
| 2026-05-07 11:24 | 77.17596 | 15.78714 | 27516 ft | 458 kts | 184° |
| 2026-05-07 11:24 | 77.14429 | 15.77196 | 27937 ft | 460 kts | 184° |
| 2026-05-07 11:25 | 77.11239 | 15.75676 | 28310 ft | 463 kts | 184° |
| 2026-05-07 11:25 | 77.08055 | 15.74166 | 28711 ft | 464 kts | 184° |
| 2026-05-07 11:25 | 77.04832 | 15.72645 | 29134 ft | 465 kts | 184° |
| 2026-05-07 11:25 | 77.01624 | 15.71133 | 29752 ft | 461 kts | 184° |
| 2026-05-07 11:26 | 76.98401 | 15.69622 | 30189 ft | 461 kts | 184° |
| 2026-05-07 11:26 | 76.95204 | 15.68133 | 30596 ft | 460 kts | 184° |
| 2026-05-07 11:26 | 76.92036 | 15.66668 | 30936 ft | 460 kts | 184° |
| 2026-05-07 11:26 | 76.88854 | 15.65203 | 31276 ft | 460 kts | 184° |
| 2026-05-07 11:27 | 76.85665 | 15.63740 | 31608 ft | 460 kts | 184° |
| 2026-05-07 11:27 | 76.82479 | 15.62289 | 31812 ft | 461 kts | 184° |
| 2026-05-07 11:27 | 76.79298 | 15.60848 | 32032 ft | 460 kts | 184° |
| 2026-05-07 11:27 | 76.76089 | 15.59401 | 32242 ft | 460 kts | 184° |
| 2026-05-07 11:28 | 76.72894 | 15.57967 | 32447 ft | 460 kts | 184° |
| 2026-05-07 11:28 | 76.69721 | 15.56551 | 32638 ft | 460 kts | 184° |
| 2026-05-07 11:28 | 76.66561 | 15.55147 | 32814 ft | 460 kts | 184° |
| 2026-05-07 11:28 | 76.63378 | 15.53738 | 32987 ft | 460 kts | 184° |
| 2026-05-07 11:29 | 76.60198 | 15.52339 | 33162 ft | 460 kts | 184° |
| 2026-05-07 11:29 | 76.57019 | 15.50948 | 33325 ft | 461 kts | 184° |
| 2026-05-07 11:29 | 76.53835 | 15.49563 | 33473 ft | 461 kts | 184° |
| 2026-05-07 11:29 | 76.50656 | 15.48183 | 33631 ft | 461 kts | 185° |
| 2026-05-07 11:30 | 76.47471 | 15.46805 | 33783 ft | 462 kts | 185° |
| 2026-05-07 11:30 | 76.44284 | 15.45434 | 33973 ft | 462 kts | 185° |
| 2026-05-07 11:30 | 76.41101 | 15.44071 | 34206 ft | 462 kts | 185° |
| 2026-05-07 11:30 | 76.37928 | 15.42722 | 34430 ft | 462 kts | 185° |
| 2026-05-07 11:31 | 76.34754 | 15.41379 | 34644 ft | 461 kts | 185° |
| 2026-05-07 11:31 | 76.31582 | 15.40043 | 34854 ft | 461 kts | 185° |
| 2026-05-07 11:31 | 76.28412 | 15.38713 | 35057 ft | 461 kts | 185° |
| 2026-05-07 11:31 | 76.25239 | 15.37385 | 35223 ft | 462 kts | 185° |
| 2026-05-07 11:32 | 76.15658 | 15.33402 | 35241 ft | 460 kts | 184° |
| 2026-05-07 11:33 | 76.09325 | 15.30802 | 35241 ft | 461 kts | 184° |
| 2026-05-07 11:33 | 76.02963 | 15.28220 | 35239 ft | 460 kts | 184° |
| 2026-05-07 11:34 | 75.96612 | 15.25664 | 35234 ft | 459 kts | 184° |
| 2026-05-07 11:34 | 75.90301 | 15.23145 | 35233 ft | 459 kts | 184° |
| 2026-05-07 11:35 | 75.83955 | 15.20639 | 35231 ft | 461 kts | 184° |
| 2026-05-07 11:35 | 75.77602 | 15.18148 | 35230 ft | 461 kts | 184° |
| 2026-05-07 11:36 | 75.71257 | 15.15680 | 35228 ft | 461 kts | 184° |
| 2026-05-07 11:36 | 75.64915 | 15.13236 | 35230 ft | 461 kts | 184° |
| 2026-05-07 11:37 | 75.58587 | 15.10819 | 35228 ft | 459 kts | 184° |
| 2026-05-07 11:37 | 75.52260 | 15.08427 | 35229 ft | 460 kts | 184° |
| 2026-05-07 11:38 | 75.45911 | 15.06048 | 35231 ft | 461 kts | 184° |
| 2026-05-07 11:38 | 75.39559 | 15.03685 | 35234 ft | 461 kts | 184° |
| 2026-05-07 11:39 | 75.33217 | 15.01348 | 35230 ft | 461 kts | 184° |
| 2026-05-07 11:39 | 75.26870 | 14.99029 | 35228 ft | 461 kts | 184° |
| 2026-05-07 11:40 | 75.20489 | 14.96716 | 35225 ft | 461 kts | 184° |
| 2026-05-07 11:40 | 75.14104 | 14.94425 | 35220 ft | 461 kts | 184° |
| 2026-05-07 11:41 | 75.07745 | 14.92159 | 35218 ft | 461 kts | 184° |
| 2026-05-07 11:41 | 75.01393 | 14.89912 | 35216 ft | 461 kts | 184° |
| 2026-05-07 11:42 | 74.95001 | 14.87672 | 35210 ft | 461 kts | 184° |
| 2026-05-07 11:42 | 74.88634 | 14.85459 | 35214 ft | 461 kts | 184° |
| 2026-05-07 11:43 | 74.82284 | 14.83270 | 35208 ft | 461 kts | 184° |
| 2026-05-07 11:43 | 74.75901 | 14.81092 | 35207 ft | 461 kts | 184° |
| 2026-05-07 11:44 | 74.69546 | 14.78938 | 35195 ft | 461 kts | 184° |
| 2026-05-07 11:44 | 74.63176 | 14.76797 | 35188 ft | 461 kts | 184° |
| 2026-05-07 11:45 | 74.56824 | 14.74680 | 35196 ft | 462 kts | 184° |
| 2026-05-07 11:45 | 74.50464 | 14.72576 | 35195 ft | 462 kts | 184° |
| 2026-05-07 11:46 | 74.44085 | 14.70483 | 35189 ft | 462 kts | 184° |
| 2026-05-07 11:46 | 74.37686 | 14.68400 | 35190 ft | 462 kts | 184° |
| 2026-05-07 11:47 | 74.31309 | 14.66342 | 35189 ft | 461 kts | 184° |
| 2026-05-07 11:47 | 74.24955 | 14.64308 | 35181 ft | 462 kts | 184° |
| 2026-05-07 11:48 | 74.18573 | 14.62282 | 35180 ft | 462 kts | 184° |
| 2026-05-07 11:48 | 74.12203 | 14.60274 | 35175 ft | 462 kts | 184° |
| 2026-05-07 11:49 | 74.05823 | 14.58280 | 35171 ft | 462 kts | 184° |
| 2026-05-07 11:49 | 73.99420 | 14.56295 | 35166 ft | 462 kts | 184° |
| 2026-05-07 11:50 | 73.93040 | 14.54330 | 35157 ft | 462 kts | 184° |
| 2026-05-07 11:50 | 73.86654 | 14.52379 | 35153 ft | 462 kts | 184° |
| 2026-05-07 11:51 | 73.80260 | 14.50442 | 35144 ft | 462 kts | 184° |
| 2026-05-07 11:51 | 73.73887 | 14.48526 | 35145 ft | 462 kts | 184° |
| 2026-05-07 11:52 | 73.67501 | 14.46622 | 35141 ft | 462 kts | 184° |
| 2026-05-07 11:52 | 73.61134 | 14.44737 | 35138 ft | 462 kts | 184° |
| 2026-05-07 11:53 | 73.54762 | 14.42864 | 35133 ft | 462 kts | 184° |
| 2026-05-07 11:53 | 73.48393 | 14.41007 | 35133 ft | 462 kts | 184° |
| 2026-05-07 11:54 | 73.42039 | 14.39169 | 35132 ft | 461 kts | 184° |
| 2026-05-07 11:54 | 73.35699 | 14.37348 | 35126 ft | 461 kts | 184° |
| 2026-05-07 11:55 | 73.29339 | 14.35536 | 35124 ft | 461 kts | 184° |
| 2026-05-07 11:55 | 73.22909 | 14.33719 | 35126 ft | 462 kts | 183° |
| 2026-05-07 11:56 | 73.16541 | 14.31931 | 35118 ft | 462 kts | 183° |
| 2026-05-07 11:56 | 73.10166 | 14.30154 | 35118 ft | 461 kts | 183° |
| 2026-05-07 11:57 | 73.03786 | 14.28388 | 35123 ft | 460 kts | 183° |
| 2026-05-07 11:57 | 72.97442 | 14.26646 | 35124 ft | 460 kts | 183° |
| 2026-05-07 11:58 | 72.91082 | 14.24913 | 35119 ft | 461 kts | 183° |
| 2026-05-07 11:58 | 72.84730 | 14.23195 | 35121 ft | 461 kts | 183° |
| 2026-05-07 11:59 | 72.78363 | 14.21484 | 35118 ft | 462 kts | 183° |
| 2026-05-07 11:59 | 72.72000 | 14.19785 | 35115 ft | 461 kts | 183° |
| 2026-05-07 12:00 | 72.65652 | 14.18103 | 35105 ft | 460 kts | 183° |
| 2026-05-07 12:00 | 72.59318 | 14.16438 | 35107 ft | 460 kts | 183° |
| 2026-05-07 12:01 | 72.52967 | 14.14782 | 35101 ft | 461 kts | 184° |
| 2026-05-07 12:01 | 72.46606 | 14.13133 | 35099 ft | 461 kts | 184° |
| 2026-05-07 12:02 | 72.40230 | 14.11490 | 35090 ft | 461 kts | 184° |
| 2026-05-07 12:02 | 72.33883 | 14.09868 | 35094 ft | 460 kts | 184° |
| 2026-05-07 12:03 | 72.27523 | 14.08255 | 35103 ft | 459 kts | 184° |
| 2026-05-07 12:03 | 72.21189 | 14.06659 | 35098 ft | 459 kts | 184° |
| 2026-05-07 12:04 | 72.14864 | 14.05078 | 35102 ft | 459 kts | 184° |
| 2026-05-07 12:04 | 72.08531 | 14.03505 | 35096 ft | 459 kts | 184° |
| 2026-05-07 12:05 | 72.02187 | 14.01940 | 35094 ft | 459 kts | 184° |
| 2026-05-07 12:05 | 71.95851 | 14.00387 | 35093 ft | 459 kts | 184° |
| 2026-05-07 12:06 | 71.89448 | 13.98830 | 35092 ft | 467 kts | 184° |
| 2026-05-07 12:06 | 71.82926 | 13.97251 | 35085 ft | 472 kts | 184° |
| 2026-05-07 12:07 | 71.76413 | 13.95682 | 35086 ft | 472 kts | 184° |
| 2026-05-07 12:07 | 71.69910 | 13.94130 | 35079 ft | 472 kts | 184° |
| 2026-05-07 12:08 | 71.63388 | 13.92586 | 35078 ft | 471 kts | 184° |
| 2026-05-07 12:08 | 71.56893 | 13.91058 | 35076 ft | 471 kts | 184° |
| 2026-05-07 12:09 | 71.50340 | 13.89527 | 35073 ft | 471 kts | 184° |
| 2026-05-07 12:09 | 71.43850 | 13.88021 | 35070 ft | 470 kts | 184° |
| 2026-05-07 12:10 | 71.37346 | 13.86523 | 35065 ft | 470 kts | 184° |
| 2026-05-07 12:10 | 71.30860 | 13.85039 | 35057 ft | 470 kts | 184° |
| 2026-05-07 12:11 | 71.24339 | 13.83557 | 35047 ft | 470 kts | 184° |
| 2026-05-07 12:11 | 71.17779 | 13.82077 | 35048 ft | 470 kts | 184° |
| 2026-05-07 12:12 | 71.11287 | 13.80621 | 35038 ft | 469 kts | 184° |
| 2026-05-07 12:12 | 71.04804 | 13.79178 | 35033 ft | 469 kts | 184° |
| 2026-05-07 12:13 | 70.98342 | 13.77749 | 35028 ft | 468 kts | 184° |
| 2026-05-07 12:13 | 70.91886 | 13.76330 | 35023 ft | 469 kts | 184° |
| 2026-05-07 12:14 | 70.85379 | 13.74911 | 35024 ft | 470 kts | 184° |
| 2026-05-07 12:14 | 70.78886 | 13.73504 | 35015 ft | 470 kts | 184° |
| 2026-05-07 12:15 | 70.72415 | 13.72109 | 35019 ft | 469 kts | 184° |
| 2026-05-07 12:15 | 70.65918 | 13.70720 | 35012 ft | 469 kts | 184° |
| 2026-05-07 12:16 | 70.59423 | 13.69339 | 35015 ft | 469 kts | 184° |
| 2026-05-07 12:16 | 70.52956 | 13.67973 | 35006 ft | 469 kts | 184° |
| 2026-05-07 12:17 | 70.46490 | 13.66616 | 35004 ft | 468 kts | 184° |
| 2026-05-07 12:17 | 70.40027 | 13.65268 | 35006 ft | 469 kts | 184° |
| 2026-05-07 12:18 | 70.33555 | 13.63928 | 34998 ft | 469 kts | 184° |
| 2026-05-07 12:18 | 70.27090 | 13.62597 | 34994 ft | 468 kts | 184° |
| 2026-05-07 12:19 | 70.20633 | 13.61276 | 34988 ft | 468 kts | 184° |
| 2026-05-07 12:19 | 70.14183 | 13.59964 | 34986 ft | 467 kts | 184° |
| 2026-05-07 12:20 | 70.07740 | 13.58662 | 34982 ft | 466 kts | 184° |
| 2026-05-07 12:20 | 70.01309 | 13.57373 | 34978 ft | 466 kts | 184° |
| 2026-05-07 12:21 | 69.94868 | 13.56089 | 34980 ft | 467 kts | 185° |
| 2026-05-07 12:21 | 69.88401 | 13.54807 | 34978 ft | 467 kts | 184° |
| 2026-05-07 12:22 | 69.81918 | 13.53531 | 34974 ft | 467 kts | 184° |
| 2026-05-07 12:22 | 69.75473 | 13.52269 | 34979 ft | 467 kts | 184° |
| 2026-05-07 12:23 | 69.69036 | 13.51015 | 34982 ft | 467 kts | 184° |
| 2026-05-07 12:23 | 69.62599 | 13.49770 | 34982 ft | 466 kts | 185° |
| 2026-05-07 12:24 | 69.56164 | 13.48533 | 34985 ft | 466 kts | 185° |
| 2026-05-07 12:24 | 69.49712 | 13.47300 | 34989 ft | 466 kts | 185° |
| 2026-05-07 12:25 | 69.43203 | 13.46064 | 34995 ft | 467 kts | 185° |
| 2026-05-07 12:25 | 69.36733 | 13.44843 | 34991 ft | 467 kts | 185° |
| 2026-05-07 12:26 | 69.30295 | 13.43615 | 34993 ft | 466 kts | 185° |
| 2026-05-07 12:26 | 69.23835 | 13.41688 | 34994 ft | 466 kts | 188° |
| 2026-05-07 12:27 | 69.17437 | 13.39346 | 34992 ft | 466 kts | 188° |
| 2026-05-07 12:27 | 69.11029 | 13.36987 | 34992 ft | 467 kts | 188° |
| 2026-05-07 12:28 | 69.04607 | 13.34695 | 34996 ft | 467 kts | 187° |
| 2026-05-07 12:28 | 68.98186 | 13.32467 | 34991 ft | 467 kts | 187° |
| 2026-05-07 12:29 | 68.91774 | 13.30282 | 34993 ft | 467 kts | 187° |
| 2026-05-07 12:29 | 68.85340 | 13.28118 | 34994 ft | 467 kts | 187° |
| 2026-05-07 12:30 | 68.78848 | 13.26162 | 34996 ft | 467 kts | 186° |
| 2026-05-07 12:30 | 68.72404 | 13.24599 | 35000 ft | 467 kts | 185° |
| 2026-05-07 12:31 | 68.65936 | 13.23087 | 35001 ft | 467 kts | 186° |
| 2026-05-07 12:31 | 68.59485 | 13.21547 | 35008 ft | 467 kts | 186° |
| 2026-05-07 12:32 | 68.53045 | 13.19979 | 35012 ft | 467 kts | 186° |
| 2026-05-07 12:32 | 68.46577 | 13.18392 | 35006 ft | 467 kts | 186° |
| 2026-05-07 12:33 | 68.36887 | 13.16017 | 35017 ft | 467 kts | 186° |
| 2026-05-07 12:33 | 68.30462 | 13.14447 | 35014 ft | 466 kts | 186° |
| 2026-05-07 12:34 | 68.24017 | 13.12884 | 35019 ft | 466 kts | 186° |
| 2026-05-07 12:34 | 68.17584 | 13.11330 | 35019 ft | 467 kts | 186° |
| 2026-05-07 12:35 | 68.11148 | 13.09783 | 35022 ft | 467 kts | 186° |
| 2026-05-07 12:35 | 68.04685 | 13.08238 | 35023 ft | 467 kts | 186° |
| 2026-05-07 12:36 | 67.98244 | 13.06708 | 35023 ft | 467 kts | 186° |
| 2026-05-07 12:36 | 67.91814 | 13.05191 | 35025 ft | 466 kts | 186° |
| 2026-05-07 12:37 | 67.85368 | 13.03680 | 35033 ft | 466 kts | 186° |
| 2026-05-07 12:37 | 67.78940 | 13.02181 | 35034 ft | 466 kts | 186° |
| 2026-05-07 12:38 | 67.72508 | 13.00688 | 35034 ft | 466 kts | 186° |
| 2026-05-07 12:38 | 67.66081 | 12.99203 | 35036 ft | 467 kts | 187° |
| 2026-05-07 12:39 | 67.59650 | 12.97727 | 35036 ft | 466 kts | 187° |
| 2026-05-07 12:39 | 67.53225 | 12.96259 | 35039 ft | 466 kts | 186° |
| 2026-05-07 12:40 | 67.46806 | 12.94801 | 35037 ft | 466 kts | 187° |
| 2026-05-07 12:40 | 67.40365 | 12.93346 | 35041 ft | 466 kts | 187° |
| 2026-05-07 12:41 | 67.33926 | 12.91901 | 35041 ft | 466 kts | 187° |
| 2026-05-07 12:41 | 67.27496 | 12.90465 | 35042 ft | 466 kts | 187° |
| 2026-05-07 12:42 | 67.21076 | 12.89038 | 35041 ft | 466 kts | 187° |
| 2026-05-07 12:42 | 67.14647 | 12.87618 | 35044 ft | 466 kts | 187° |
| 2026-05-07 12:43 | 67.08227 | 12.86206 | 35043 ft | 466 kts | 187° |
| 2026-05-07 12:43 | 67.01804 | 12.84800 | 35046 ft | 466 kts | 187° |
| 2026-05-07 12:44 | 66.95372 | 12.83401 | 35047 ft | 466 kts | 187° |
| 2026-05-07 12:44 | 66.88942 | 12.82012 | 35048 ft | 465 kts | 187° |
| 2026-05-07 12:45 | 66.82503 | 12.80628 | 35049 ft | 465 kts | 187° |
| 2026-05-07 12:45 | 66.76081 | 12.79255 | 35051 ft | 465 kts | 187° |
| 2026-05-07 12:46 | 66.69663 | 12.77888 | 35052 ft | 466 kts | 187° |
| 2026-05-07 12:46 | 66.63240 | 12.76526 | 35053 ft | 466 kts | 187° |
| 2026-05-07 12:47 | 66.56806 | 12.75170 | 35053 ft | 467 kts | 187° |
| 2026-05-07 12:47 | 66.50361 | 12.73819 | 35056 ft | 466 kts | 187° |
| 2026-05-07 12:48 | 66.43923 | 12.72478 | 35056 ft | 466 kts | 187° |
| 2026-05-07 12:48 | 66.37472 | 12.71142 | 35054 ft | 466 kts | 187° |
| 2026-05-07 12:49 | 66.31047 | 12.69817 | 35056 ft | 466 kts | 187° |
| 2026-05-07 12:49 | 66.24612 | 12.68495 | 35056 ft | 466 kts | 187° |
| 2026-05-07 12:50 | 66.18172 | 12.67178 | 35058 ft | 467 kts | 187° |
| 2026-05-07 12:50 | 66.11715 | 12.65866 | 35053 ft | 467 kts | 187° |
| 2026-05-07 12:51 | 66.05260 | 12.64561 | 35053 ft | 467 kts | 187° |
| 2026-05-07 12:51 | 65.98808 | 12.63267 | 35054 ft | 467 kts | 187° |
| 2026-05-07 12:52 | 65.92370 | 12.61981 | 35055 ft | 467 kts | 187° |
| 2026-05-07 12:52 | 65.85887 | 12.60692 | 35058 ft | 466 kts | 188° |
| 2026-05-07 12:53 | 65.79465 | 12.59418 | 35061 ft | 466 kts | 188° |
| 2026-05-07 12:53 | 65.73028 | 12.58148 | 35059 ft | 467 kts | 188° |
| 2026-05-07 12:54 | 65.66585 | 12.56885 | 35065 ft | 468 kts | 188° |
| 2026-05-07 12:54 | 65.60139 | 12.55627 | 35072 ft | 467 kts | 188° |
| 2026-05-07 12:55 | 65.53695 | 12.54374 | 35077 ft | 467 kts | 188° |
| 2026-05-07 12:55 | 65.47247 | 12.53130 | 35077 ft | 467 kts | 188° |
| 2026-05-07 12:56 | 65.40811 | 12.51894 | 35080 ft | 467 kts | 188° |
| 2026-05-07 12:56 | 65.34363 | 12.50659 | 35081 ft | 467 kts | 188° |
| 2026-05-07 12:57 | 65.27910 | 12.49431 | 35079 ft | 468 kts | 188° |
| 2026-05-07 12:57 | 65.21459 | 12.48212 | 35079 ft | 467 kts | 188° |
| 2026-05-07 12:58 | 65.14999 | 12.46995 | 35072 ft | 468 kts | 188° |
| 2026-05-07 12:58 | 65.08546 | 12.45785 | 35064 ft | 468 kts | 188° |
| 2026-05-07 12:59 | 65.02078 | 12.44577 | 35057 ft | 469 kts | 188° |
| 2026-05-07 12:59 | 64.95597 | 12.43378 | 35051 ft | 468 kts | 188° |
| 2026-05-07 13:00 | 64.89127 | 12.42183 | 35037 ft | 468 kts | 188° |
| 2026-05-07 13:00 | 64.82619 | 12.40987 | 35033 ft | 468 kts | 188° |
| 2026-05-07 13:01 | 64.76156 | 12.39805 | 35023 ft | 468 kts | 188° |
| 2026-05-07 13:01 | 64.69690 | 12.38627 | 35023 ft | 468 kts | 188° |
| 2026-05-07 13:02 | 64.63226 | 12.37453 | 35046 ft | 468 kts | 188° |
| 2026-05-07 13:02 | 64.56769 | 12.36288 | 35057 ft | 468 kts | 189° |
| 2026-05-07 13:03 | 64.50323 | 12.35129 | 35066 ft | 467 kts | 188° |
| 2026-05-07 13:03 | 64.43821 | 12.33969 | 35077 ft | 467 kts | 188° |
| 2026-05-07 13:04 | 64.37352 | 12.32821 | 35083 ft | 467 kts | 188° |
| 2026-05-07 13:04 | 64.30864 | 12.31672 | 35090 ft | 468 kts | 188° |
| 2026-05-07 13:05 | 64.24379 | 12.30531 | 35090 ft | 468 kts | 188° |
| 2026-05-07 13:05 | 64.17916 | 12.29398 | 35082 ft | 468 kts | 188° |
| 2026-05-07 13:06 | 64.11448 | 12.28271 | 35065 ft | 467 kts | 188° |
| 2026-05-07 13:06 | 64.04999 | 12.27150 | 35049 ft | 467 kts | 188° |
| 2026-05-07 13:07 | 63.98550 | 12.26034 | 35030 ft | 467 kts | 188° |
| 2026-05-07 13:07 | 63.92088 | 12.24920 | 35041 ft | 468 kts | 188° |
| 2026-05-07 13:08 | 63.85604 | 12.23811 | 35034 ft | 468 kts | 188° |
| 2026-05-07 13:08 | 63.79158 | 12.22711 | 35040 ft | 467 kts | 188° |
| 2026-05-07 13:09 | 63.72716 | 12.21621 | 35049 ft | 467 kts | 189° |
| 2026-05-07 13:09 | 63.66258 | 12.20530 | 35046 ft | 467 kts | 189° |
| 2026-05-07 13:10 | 63.59752 | 12.19436 | 35040 ft | 468 kts | 189° |
| 2026-05-07 13:10 | 63.53265 | 12.18349 | 35036 ft | 468 kts | 189° |
| 2026-05-07 13:11 | 63.46787 | 12.17270 | 35028 ft | 468 kts | 189° |
| 2026-05-07 13:11 | 63.40297 | 12.16195 | 35035 ft | 467 kts | 189° |
| 2026-05-07 13:12 | 63.33828 | 12.15128 | 35040 ft | 468 kts | 189° |
| 2026-05-07 13:12 | 63.27339 | 12.14062 | 35044 ft | 467 kts | 189° |
| 2026-05-07 13:13 | 63.20872 | 12.13004 | 35041 ft | 467 kts | 189° |
| 2026-05-07 13:13 | 63.14324 | 12.11942 | 35027 ft | 469 kts | 189° |
| 2026-05-07 13:14 | 63.07819 | 12.10889 | 35023 ft | 468 kts | 189° |
| 2026-05-07 13:14 | 63.01321 | 12.09839 | 35016 ft | 469 kts | 189° |
| 2026-05-07 13:15 | 62.94806 | 12.08792 | 35020 ft | 468 kts | 189° |
| 2026-05-07 13:15 | 62.88293 | 12.07755 | 35023 ft | 467 kts | 190° |
| 2026-05-07 13:16 | 62.81816 | 12.06726 | 35016 ft | 467 kts | 190° |
| 2026-05-07 13:16 | 62.75325 | 12.05695 | 35033 ft | 468 kts | 190° |
| 2026-05-07 13:17 | 62.68821 | 12.04665 | 35024 ft | 468 kts | 190° |
| 2026-05-07 13:17 | 62.62320 | 12.03641 | 35039 ft | 469 kts | 190° |
| 2026-05-07 13:18 | 62.55853 | 12.02631 | 35032 ft | 467 kts | 190° |
| 2026-05-07 13:18 | 62.49393 | 12.01625 | 35026 ft | 468 kts | 190° |
| 2026-05-07 13:19 | 62.42920 | 12.00624 | 35020 ft | 467 kts | 190° |
| 2026-05-07 13:19 | 62.36460 | 11.99622 | 35030 ft | 468 kts | 190° |
| 2026-05-07 13:20 | 62.29979 | 11.98625 | 35020 ft | 467 kts | 190° |
| 2026-05-07 13:20 | 62.23472 | 11.97630 | 35010 ft | 468 kts | 190° |
| 2026-05-07 13:21 | 62.16994 | 11.96649 | 35020 ft | 466 kts | 190° |
| 2026-05-07 13:21 | 62.10667 | 11.95710 | 35030 ft | 453 kts | 191° |
| 2026-05-07 13:22 | 62.04348 | 11.94757 | 34813 ft | 458 kts | 191° |
| 2026-05-07 13:22 | 62.01153 | 11.94357 | 34611 ft | 459 kts | 189° |
| 2026-05-07 13:22 | 61.97966 | 11.94440 | 34413 ft | 463 kts | 184° |
| 2026-05-07 13:23 | 61.94754 | 11.95035 | 34202 ft | 466 kts | 181° |
| 2026-05-07 13:23 | 61.91494 | 11.95917 | 34007 ft | 470 kts | 179° |
| 2026-05-07 13:23 | 61.88236 | 11.96929 | 33744 ft | 472 kts | 179° |
| 2026-05-07 13:23 | 61.84971 | 11.97983 | 33085 ft | 477 kts | 179° |
| 2026-05-07 13:24 | 61.81697 | 11.99033 | 32358 ft | 482 kts | 179° |
| 2026-05-07 13:24 | 61.78399 | 12.00071 | 31845 ft | 481 kts | 179° |
| 2026-05-07 13:24 | 61.75126 | 12.01085 | 31411 ft | 475 kts | 180° |
| 2026-05-07 13:24 | 61.71890 | 12.02070 | 30943 ft | 471 kts | 180° |
| 2026-05-07 13:25 | 61.68675 | 12.03029 | 30459 ft | 467 kts | 180° |
| 2026-05-07 13:25 | 61.65483 | 12.03963 | 29983 ft | 462 kts | 180° |
| 2026-05-07 13:25 | 61.62300 | 12.04880 | 29461 ft | 459 kts | 180° |
| 2026-05-07 13:25 | 61.59165 | 12.05774 | 29010 ft | 454 kts | 180° |
| 2026-05-07 13:26 | 61.56059 | 12.06652 | 28452 ft | 451 kts | 180° |
| 2026-05-07 13:26 | 61.52991 | 12.07390 | 27977 ft | 441 kts | 186° |
| 2026-05-07 13:26 | 61.50028 | 12.06835 | 27385 ft | 421 kts | 202° |
| 2026-05-07 13:26 | 61.47322 | 12.04933 | 26901 ft | 405 kts | 212° |
| 2026-05-07 13:27 | 61.44813 | 12.02507 | 26396 ft | 398 kts | 214° |
| 2026-05-07 13:27 | 61.42348 | 11.99974 | 25790 ft | 397 kts | 214° |
| 2026-05-07 13:27 | 61.39875 | 11.97493 | 25069 ft | 397 kts | 213° |
| 2026-05-07 13:27 | 61.37404 | 11.95154 | 24378 ft | 388 kts | 212° |
| 2026-05-07 13:28 | 61.34956 | 11.92962 | 23710 ft | 383 kts | 211° |
| 2026-05-07 13:28 | 61.32513 | 11.90864 | 22990 ft | 378 kts | 210° |
| 2026-05-07 13:28 | 61.30101 | 11.88855 | 22295 ft | 374 kts | 209° |
| 2026-05-07 13:28 | 61.27701 | 11.86902 | 21605 ft | 372 kts | 208° |
| 2026-05-07 13:29 | 61.25308 | 11.84983 | 20915 ft | 371 kts | 208° |
| 2026-05-07 13:29 | 61.22910 | 11.83076 | 20221 ft | 372 kts | 207° |
| 2026-05-07 13:29 | 61.20506 | 11.81175 | 19543 ft | 372 kts | 207° |
| 2026-05-07 13:29 | 61.18124 | 11.79311 | 18926 ft | 363 kts | 207° |
| 2026-05-07 13:30 | 61.15782 | 11.77485 | 18355 ft | 360 kts | 206° |
| 2026-05-07 13:30 | 61.13459 | 11.75673 | 17857 ft | 357 kts | 206° |
| 2026-05-07 13:30 | 61.11166 | 11.73884 | 17383 ft | 352 kts | 206° |
| 2026-05-07 13:30 | 61.08893 | 11.72114 | 16902 ft | 349 kts | 206° |
| 2026-05-07 13:31 | 61.06644 | 11.70366 | 16427 ft | 346 kts | 206° |
| 2026-05-07 13:31 | 61.04410 | 11.68630 | 15960 ft | 344 kts | 206° |
| 2026-05-07 13:31 | 61.02187 | 11.66903 | 15488 ft | 343 kts | 206° |
| 2026-05-07 13:31 | 60.99966 | 11.65181 | 15016 ft | 341 kts | 206° |
| 2026-05-07 13:32 | 60.97764 | 11.63479 | 14541 ft | 339 kts | 205° |
| 2026-05-07 13:32 | 60.95575 | 11.61792 | 14079 ft | 337 kts | 205° |
| 2026-05-07 13:32 | 60.93390 | 11.60108 | 13612 ft | 336 kts | 205° |
| 2026-05-07 13:32 | 60.91221 | 11.58438 | 13144 ft | 333 kts | 204° |
| 2026-05-07 13:33 | 60.89055 | 11.56775 | 12673 ft | 331 kts | 204° |
| 2026-05-07 13:33 | 60.86907 | 11.55128 | 12194 ft | 329 kts | 204° |
| 2026-05-07 13:33 | 60.84783 | 11.53502 | 11729 ft | 326 kts | 203° |
| 2026-05-07 13:33 | 60.82676 | 11.51887 | 11267 ft | 324 kts | 203° |
| 2026-05-07 13:34 | 60.80577 | 11.50280 | 10803 ft | 321 kts | 202° |
| 2026-05-07 13:34 | 60.76461 | 11.47140 | 10375 ft | 313 kts | 202° |
| 2026-05-07 13:34 | 60.74470 | 11.45633 | 10256 ft | 298 kts | 202° |
| 2026-05-07 13:35 | 60.72583 | 11.44204 | 10178 ft | 285 kts | 202° |
| 2026-05-07 13:35 | 60.70726 | 11.42798 | 9930 ft | 287 kts | 202° |
| 2026-05-07 13:35 | 60.68864 | 11.41387 | 9526 ft | 287 kts | 202° |
| 2026-05-07 13:35 | 60.67009 | 11.39984 | 9169 ft | 284 kts | 202° |
| 2026-05-07 13:36 | 60.65171 | 11.38595 | 8816 ft | 282 kts | 202° |
| 2026-05-07 13:36 | 60.63344 | 11.37217 | 8463 ft | 280 kts | 202° |
| 2026-05-07 13:36 | 60.61531 | 11.35851 | 8115 ft | 278 kts | 202° |
| 2026-05-07 13:36 | 60.59719 | 11.34486 | 7670 ft | 280 kts | 201° |
| 2026-05-07 13:37 | 60.57911 | 11.33124 | 7245 ft | 275 kts | 201° |
| 2026-05-07 13:37 | 60.56147 | 11.31800 | 6906 ft | 268 kts | 201° |
| 2026-05-07 13:37 | 60.54417 | 11.30502 | 6567 ft | 266 kts | 201° |
| 2026-05-07 13:37 | 60.52696 | 11.29214 | 6238 ft | 264 kts | 200° |
| 2026-05-07 13:38 | 60.50987 | 11.27939 | 5968 ft | 260 kts | 200° |
| 2026-05-07 13:38 | 60.49304 | 11.26685 | 5752 ft | 257 kts | 200° |
| 2026-05-07 13:38 | 60.47627 | 11.25434 | 5531 ft | 258 kts | 200° |
| 2026-05-07 13:38 | 60.45980 | 11.24038 | 5309 ft | 257 kts | 206° |
| 2026-05-07 13:39 | 60.44359 | 11.22481 | 5015 ft | 258 kts | 202° |
| 2026-05-07 13:39 | 60.42681 | 11.21288 | 4753 ft | 255 kts | 196° |
| 2026-05-07 13:39 | 60.40994 | 11.20376 | 4500 ft | 246 kts | 194° |
| 2026-05-07 13:39 | 60.39387 | 11.19513 | 4212 ft | 235 kts | 196° |
| 2026-05-07 13:40 | 60.37846 | 11.18609 | 3982 ft | 225 kts | 197° |
| 2026-05-07 13:40 | 60.36376 | 11.17733 | 3787 ft | 219 kts | 196° |
| 2026-05-07 13:40 | 60.34928 | 11.16889 | 3473 ft | 217 kts | 196° |
| 2026-05-07 13:40 | 60.33496 | 11.16060 | 3145 ft | 210 kts | 196° |
| 2026-05-07 13:41 | 60.32122 | 11.15261 | 2875 ft | 202 kts | 196° |
| 2026-05-07 13:41 | 60.30802 | 11.14494 | 2625 ft | 193 kts | 196° |
| 2026-05-07 13:41 | 60.29568 | 11.13777 | 2338 ft | 180 kts | 197° |
| 2026-05-07 13:41 | 60.28429 | 11.13116 | 2145 ft | 164 kts | 197° |
| 2026-05-07 13:42 | 60.27346 | 11.12489 | 1882 ft | 161 kts | 197° |
| 2026-05-07 13:42 | 60.26284 | 11.11875 | 1678 ft | 158 kts | 197° |
| 2026-05-07 13:42 | 60.25219 | 11.11266 | 1460 ft | 160 kts | 195° |
| 2026-05-07 13:42 | 60.24152 | 11.10708 | 1298 ft | 157 kts | 195° |
| 2026-05-07 13:43 | 60.23120 | 11.10036 | 1099 ft | 157 kts | 199° |
| 2026-05-07 13:43 | 60.22066 | 11.09429 | 865 ft | 159 kts | 195° |
| 2026-05-07 13:43 | 60.21015 | 11.08832 | 687 ft | 150 kts | 196° |
| 2026-05-07 13:43 | 60.20224 | 11.08368 | 686 ft | 73 kts | 195° |
| 2026-05-07 13:44 | 60.19879 | 11.08168 | 685 ft | 40 kts | 196° |
| 2026-05-07 13:44 | 60.19702 | 11.08116 | 679 ft | 21 kts | 180° |
| 2026-05-07 13:44 | 60.19591 | 11.08188 | 677 ft | 11 kts | 131° |
| 2026-05-07 13:44 | 60.19566 | 11.08303 | 679 ft | 9 kts | 108° |
| 2026-05-07 13:45 | 60.19545 | 11.08433 | 684 ft | 9 kts | 108° |
| 2026-05-07 13:45 | 60.19563 | 11.08556 | 686 ft | 13 kts | 34° |
| 2026-05-07 13:45 | 60.19664 | 11.08615 | 686 ft | 15 kts | 15° |
| 2026-05-07 13:45 | 60.19754 | 11.08686 | 687 ft | 12 kts | 49° |
| 2026-05-07 13:46 | 60.19754 | 11.08855 | 687 ft | 12 kts | 106° |
| 2026-05-07 13:46 | 60.19729 | 11.09022 | 687 ft | 12 kts | 106° |
| 2026-05-07 13:46 | 60.19704 | 11.09188 | 687 ft | 12 kts | 106° |
| 2026-05-07 13:46 | 60.19680 | 11.09354 | 687 ft | 12 kts | 107° |
| 2026-05-07 13:47 | 60.19656 | 11.09518 | 687 ft | 11 kts | 107° |
| 2026-05-07 13:47 | 60.19644 | 11.09659 | 687 ft | 9 kts | 75° |
| 2026-05-07 13:47 | 60.19667 | 11.09785 | 687 ft | 9 kts | 93° |
| 2026-05-07 13:47 | 60.19655 | 11.09895 | 687 ft | 6 kts | 108° |
| 2026-05-07 13:48 | 60.19647 | 11.09940 | 687 ft | 0 kts | 106° |
| 2026-05-07 13:48 | 60.19647 | 11.09942 | 687 ft | 0 kts | 106° |